Time;durP1;ratioP1;P1;durP2;ratioP2;P2;SDS_P1;SDS_P2;PMS_P1;PMS_P2;Temp;Humidity;BMP_temperature;BMP_pressure;BME280_temperature;BME280_humidity;BME280_pressure;Samples;Min_cycle;Max_cycle;Signal;HPM_P1;HPM_P2
2023/06/01 00:00:40;;;;;;;;;;;;;;;15.46;100.00;95367.91;5136674;27;973;-57
2023/06/01 00:03:06;;;;;;;;;;;;;;;15.37;100.00;95362.63;5136455;27;1326;-57
2023/06/01 00:05:32;;;;;;;;;;;;;;;15.21;100.00;95370.88;5136256;27;1053;-57
2023/06/01 00:07:58;;;;;;;;;;;;;;;15.02;100.00;95367.72;5136417;27;1033;-57
2023/06/01 00:10:24;;;;;;;;;;;;;;;15.00;100.00;95367.03;5136370;27;1917;-56
2023/06/01 00:12:50;;;;;;;;;;;;;;;15.11;100.00;95364.94;5136402;27;1017;-57
2023/06/01 00:15:16;;;;;;;;;;;;;;;15.26;100.00;95368.47;5136062;27;1045;-57
2023/06/01 00:17:42;;;;;;;;;;;;;;;15.27;100.00;95367.47;5117892;27;1231;-56
2023/06/01 00:20:08;;;;;;;;;;;;;;;15.21;100.00;95362.78;5136041;27;1045;-57
2023/06/01 00:22:38;;;;;;;;;;;;;;;15.02;100.00;95362.31;5135915;27;1057;-57
2023/06/01 00:25:07;;;;;;;;;;;;;;;14.92;100.00;95360.91;5136211;27;1037;-57
2023/06/01 00:27:33;;;;;;;;;;;;;;;15.09;100.00;95359.72;5117412;27;1216;-57
2023/06/01 00:29:59;;;;;;;;;;;;;;;15.23;100.00;95363.44;5135852;27;1097;-57
2023/06/01 00:32:25;;;;;;;;;;;;;;;15.31;100.00;95363.38;5135859;27;1987;-57
2023/06/01 00:34:51;;;;;;;;;;;;;;;15.24;100.00;95362.44;5129725;27;2646;-57
2023/06/01 00:37:17;;;;;;;;;;;;;;;15.14;100.00;95365.41;5114939;28;1108;-56
2023/06/01 00:39:43;;;;;;;;;;;;;;;15.18;100.00;95360.50;5115111;28;1056;-57
2023/06/01 00:42:09;;;;;;;;;;;;;;;15.27;100.00;95358.53;5115036;28;1259;-57
2023/06/01 00:44:35;;;;;;;;;;;;;;;15.31;100.00;95347.22;5115325;28;1064;-56
2023/06/01 00:47:01;;;;;;;;;;;;;;;15.34;100.00;95349.50;5115104;28;1037;-56
2023/06/01 00:49:27;;;;;;;;;;;;;;;15.15;100.00;95350.06;5114860;28;937;-57
2023/06/01 00:51:54;;;;;;;;;;;;;;;15.17;100.00;95353.41;5114889;28;1901;-56
2023/06/01 00:54:20;;;;;;;;;;;;;;;15.28;100.00;95355.66;5114987;28;997;-57
2023/06/01 00:56:46;;;;;;;;;;;;;;;15.36;100.00;95344.78;5114731;28;1044;-57
2023/06/01 00:59:12;;;;;;;;;;;;;;;15.35;100.00;95351.19;5114594;28;1100;-57
2023/06/01 01:01:42;;;;;;;;;;;;;;;15.40;100.00;95358.72;5122956;27;2776;-56
2023/06/01 01:04:09;;;;;;;;;;;;;;;15.29;100.00;95368.09;5114468;28;1299;-57
2023/06/01 01:06:39;;;;;;;;;;;;;;;15.16;100.00;95362.53;5114670;28;972;-57
2023/06/01 01:09:19;;;;;;;;;;;;;;;15.15;100.00;95360.84;5114585;28;932;-57
2023/06/01 01:11:51;;;;;;;;;;;;;;;15.09;100.00;95359.72;5114632;28;2019;-56
2023/06/01 01:14:22;;;;;;;;;;;;;;;14.91;100.00;95362.78;5114644;28;977;-56
2023/06/01 01:17:02;;;;;;;;;;;;;;;15.08;100.00;95360.75;5114557;28;1070;-57
2023/06/01 01:19:42;;;;;;;;;;;;;;;15.23;100.00;95368.81;5114557;28;1021;-57
2023/06/01 01:22:15;;;;;;;;;;;;;;;15.46;100.00;95366.06;5114287;28;1057;-56
2023/06/01 01:25:05;;;;;;;;;;;;;;;15.56;100.00;95363.09;5114427;28;969;-57
2023/06/01 01:27:53;;;;;;;;;;;;;;;15.50;100.00;95370.06;5119028;27;1508;-57
2023/06/01 01:30:21;;;;;;;;;;;;;;;15.36;100.00;95369.03;5134523;27;1978;-57
2023/06/01 01:32:48;;;;;;;;;;;;;;;15.28;100.00;95363.72;5134975;27;1021;-56
2023/06/01 01:35:14;;;;;;;;;;;;;;;15.24;100.00;95357.03;5134585;27;1048;-56
2023/06/01 01:37:51;;;;;;;;;;;;;;;15.26;100.00;95359.56;5134701;27;1021;-56
2023/06/01 01:40:17;;;;;;;;;;;;;;;15.30;100.00;95355.47;5134520;27;1029;-56
2023/06/01 01:42:43;;;;;;;;;;;;;;;15.24;100.00;95362.44;5134798;27;1024;-56
2023/06/01 01:45:09;;;;;;;;;;;;;;;15.06;100.00;95359.25;5134391;27;1053;-56
2023/06/01 01:47:45;;;;;;;;;;;;;;;15.08;100.00;95359.91;5134675;27;1012;-56
2023/06/01 01:50:12;;;;;;;;;;;;;;;15.18;100.00;95355.94;5134577;27;1039;-56
2023/06/01 01:52:39;;;;;;;;;;;;;;;15.21;100.00;95352.88;5134636;27;1902;-56
2023/06/01 01:55:07;;;;;;;;;;;;;;;15.15;100.00;95360.84;5134663;27;1040;-57
2023/06/01 01:57:34;;;;;;;;;;;;;;;15.23;100.00;95355.34;5134257;27;1264;-56
2023/06/01 02:00:05;;;;;;;;;;;;;;;15.23;100.00;95367.00;5134264;28;1097;-57
2023/06/01 02:02:31;;;;;;;;;;;;;;;15.03;100.00;95368.53;5134154;28;1289;-57
2023/06/01 02:04:57;;;;;;;;;;;;;;;14.93;100.00;95374.19;5133684;27;1107;-56
2023/06/01 02:07:24;;;;;;;;;;;;;;;14.98;100.00;95370.94;5134258;28;980;-57
2023/06/01 02:09:50;;;;;;;;;;;;;;;15.02;100.00;95375.78;5134185;28;1107;-57
2023/06/01 02:12:16;;;;;;;;;;;;;;;15.01;100.00;95373.28;5134275;28;1901;-57
2023/06/01 02:14:42;;;;;;;;;;;;;;;15.06;100.00;95370.84;5134348;28;1036;-56
2023/06/01 02:17:07;;;;;;;;;;;;;;;15.10;100.00;95372.19;5134104;28;1120;-57
2023/06/01 02:19:33;;;;;;;;;;;;;;;15.15;100.00;95371.63;5134182;28;961;-56
2023/06/01 02:21:59;;;;;;;;;;;;;;;15.16;100.00;95367.91;5134065;28;1885;-56
2023/06/01 02:24:25;;;;;;;;;;;;;;;15.10;100.00;95374.00;5134013;28;1056;-56
2023/06/01 02:26:53;;;;;;;;;;;;;;;14.97;100.00;95370.09;5133983;28;1169;-56
2023/06/01 02:29:21;;;;;;;;;;;;;;;14.80;100.00;95379.34;5134198;28;1023;-56
2023/06/01 02:31:49;;;;;;;;;;;;;;;14.72;100.00;95374.88;5134243;28;1909;-56
2023/06/01 02:34:15;;;;;;;;;;;;;;;14.80;100.00;95373.97;5134215;28;1045;-57
2023/06/01 02:36:41;;;;;;;;;;;;;;;14.79;100.00;95373.13;5134044;28;1227;-56
2023/06/01 02:39:08;;;;;;;;;;;;;;;14.79;100.00;95370.44;5133935;28;1045;-56
2023/06/01 02:41:34;;;;;;;;;;;;;;;14.98;100.00;95377.16;5115881;28;1033;-56
2023/06/01 02:44:00;;;;;;;;;;;;;;;15.00;98.99;95383.19;5134090;28;1032;-57
2023/06/01 02:46:26;;;;;;;;;;;;;;;14.92;99.40;95372.50;5133895;28;1036;-57
2023/06/01 02:48:52;;;;;;;;;;;;;;;14.89;100.00;95372.88;5134159;28;985;-56
2023/06/01 02:51:18;;;;;;;;;;;;;;;14.80;100.00;95368.59;5133984;28;1987;-57
2023/06/01 02:53:46;;;;;;;;;;;;;;;14.70;100.00;95373.38;5133820;28;1064;-56
2023/06/01 02:56:12;;;;;;;;;;;;;;;14.58;100.00;95375.66;5133674;28;1104;-57
2023/06/01 02:58:38;;;;;;;;;;;;;;;14.48;100.00;95375.06;5134031;28;1024;-56
2023/06/01 03:01:04;;;;;;;;;;;;;;;14.19;100.00;95373.88;5133773;28;1068;-56
2023/06/01 03:03:30;;;;;;;;;;;;;;;14.24;100.00;95368.81;5133609;28;1091;-56
2023/06/01 03:06:00;;;;;;;;;;;;;;;14.38;99.97;95373.44;5133661;28;1073;-56
2023/06/01 03:08:26;;;;;;;;;;;;;;;14.27;100.00;95376.53;5133851;28;1033;-57
2023/06/01 03:10:52;;;;;;;;;;;;;;;14.24;100.00;95377.72;5133573;28;1910;-56
2023/06/01 03:13:18;;;;;;;;;;;;;;;14.26;100.00;95377.53;5133808;28;1211;-55
2023/06/01 03:15:44;;;;;;;;;;;;;;;14.25;100.00;95382.09;5133448;27;1785;-56
2023/06/01 03:18:10;;;;;;;;;;;;;;;14.21;100.00;95378.09;5118403;27;1892;-56
2023/06/01 03:20:36;;;;;;;;;;;;;;;14.03;100.00;95378.34;5137222;27;1057;-56
2023/06/01 03:23:02;;;;;;;;;;;;;;;14.13;100.00;95385.34;5137068;27;1025;-56
2023/06/01 03:25:28;;;;;;;;;;;;;;;14.19;100.00;95381.94;5137250;27;1004;-56
2023/06/01 03:27:54;;;;;;;;;;;;;;;14.18;99.81;95381.13;5137269;27;1165;-56
2023/06/01 03:30:21;;;;;;;;;;;;;;;14.27;100.00;95386.47;5137007;27;1905;-56
2023/06/01 03:32:47;;;;;;;;;;;;;;;14.26;100.00;95388.28;5137020;27;1045;-56
2023/06/01 03:35:13;;;;;;;;;;;;;;;14.23;100.00;95388.66;5136884;27;1233;-57
2023/06/01 03:37:40;;;;;;;;;;;;;;;14.00;100.00;95392.16;5136887;27;1187;-56
2023/06/01 03:40:13;;;;;;;;;;;;;;;13.88;100.00;95384.66;5136885;27;1103;-56
2023/06/01 03:42:46;;;;;;;;;;;;;;;14.12;100.00;95399.81;5118918;27;981;-56
2023/06/01 03:45:12;;;;;;;;;;;;;;;14.16;100.00;95390.38;5136856;27;1000;-57
2023/06/01 03:47:39;;;;;;;;;;;;;;;14.13;99.53;95388.03;5136825;27;1031;-57
2023/06/01 03:50:06;;;;;;;;;;;;;;;13.93;100.00;95399.25;5136894;27;1012;-57
2023/06/01 03:52:32;;;;;;;;;;;;;;;13.85;100.00;95396.59;5136760;27;1910;-57
2023/06/01 03:55:01;;;;;;;;;;;;;;;13.97;100.00;95399.72;5136474;27;1390;-56
2023/06/01 03:57:27;;;;;;;;;;;;;;;14.06;100.00;95398.69;5136404;27;1212;-57
2023/06/01 03:59:53;;;;;;;;;;;;;;;14.33;100.00;95393.81;5136401;27;1113;-56
2023/06/01 04:02:19;;;;;;;;;;;;;;;14.63;100.00;95400.19;5136440;27;1040;-55
2023/06/01 04:04:46;;;;;;;;;;;;;;;14.75;99.06;95397.91;5136246;27;1112;-57
2023/06/01 04:07:18;;;;;;;;;;;;;;;14.90;99.09;95401.47;5136533;27;1020;-56
2023/06/01 04:09:46;;;;;;;;;;;;;;;15.06;99.36;95402.34;5136586;27;973;-56
2023/06/01 04:12:12;;;;;;;;;;;;;;;15.15;100.00;95406.63;5136258;27;2000;-56
2023/06/01 04:14:38;;;;;;;;;;;;;;;15.09;100.00;95404.66;5136085;27;1116;-56
2023/06/01 04:17:04;;;;;;;;;;;;;;;15.18;100.00;95408.97;5136193;27;1036;-56
2023/06/01 04:19:30;;;;;;;;;;;;;;;15.20;100.00;95409.63;5135938;27;1216;-56
2023/06/01 04:21:56;;;;;;;;;;;;;;;15.22;100.00;95404.88;5136325;27;1027;-56
2023/06/01 04:24:22;;;;;;;;;;;;;;;15.23;100.00;95414.63;5136245;27;1037;-57
2023/06/01 04:26:49;;;;;;;;;;;;;;;15.32;100.00;95415.38;5136149;27;1220;-56
2023/06/01 04:29:16;;;;;;;;;;;;;;;15.41;100.00;95417.81;5135560;27;1051;-57
2023/06/01 04:31:42;;;;;;;;;;;;;;;15.79;99.51;95408.84;5136111;27;1913;-57
2023/06/01 04:34:09;;;;;;;;;;;;;;;16.25;97.63;95410.44;5136020;27;961;-57
2023/06/01 04:36:39;;;;;;;;;;;;;;;16.62;95.44;95422.88;5136078;27;969;-57
2023/06/01 04:39:06;;;;;;;;;;;;;;;16.71;96.83;95419.03;5135800;27;1031;-57
2023/06/01 04:41:32;;;;;;;;;;;;;;;16.40;97.96;95417.44;5135711;27;973;-57
2023/06/01 04:43:58;;;;;;;;;;;;;;;16.32;96.14;95414.03;5135560;27;1053;-58
2023/06/01 04:46:26;;;;;;;;;;;;;;;16.20;98.45;95409.13;5135775;27;1051;-58
2023/06/01 04:48:52;;;;;;;;;;;;;;;16.10;100.00;95421.25;5135481;27;996;-58
2023/06/01 04:51:23;;;;;;;;;;;;;;;16.18;100.00;95419.28;5135264;27;1913;-58
2023/06/01 04:53:51;;;;;;;;;;;;;;;16.27;99.80;95424.56;5135403;27;1224;-57
2023/06/01 04:56:18;;;;;;;;;;;;;;;16.37;100.00;95420.53;5135465;27;1054;-57
2023/06/01 04:58:46;;;;;;;;;;;;;;;16.46;100.00;95423.13;5135273;27;1048;-57
2023/06/01 05:01:15;;;;;;;;;;;;;;;16.37;100.00;95427.78;5135126;27;1061;-58
2023/06/01 05:03:45;;;;;;;;;;;;;;;16.10;100.00;95429.34;5135237;27;1093;-58
2023/06/01 05:06:11;;;;;;;;;;;;;;;15.90;100.00;95424.53;5117149;27;1000;-58
2023/06/01 05:08:38;;;;;;;;;;;;;;;15.88;100.00;95431.13;5135110;27;1041;-58
2023/06/01 05:11:04;;;;;;;;;;;;;;;15.85;100.00;95429.66;5134951;27;1914;-58
2023/06/01 05:13:30;;;;;;;;;;;;;;;15.89;100.00;95433.63;5116810;27;1034;-58
2023/06/01 05:15:56;;;;;;;;;;;;;;;16.06;100.00;95426.19;5134849;27;1222;-58
2023/06/01 05:18:22;;;;;;;;;;;;;;;16.41;100.00;95423.69;5134883;27;1065;-58
2023/06/01 05:20:48;;;;;;;;;;;;;;;16.47;100.00;95427.50;5116773;27;1108;-58
2023/06/01 05:23:14;;;;;;;;;;;;;;;16.56;100.00;95423.63;5134805;27;1056;-57
2023/06/01 05:25:41;;;;;;;;;;;;;;;16.62;100.00;95419.31;5135076;27;976;-58
2023/06/01 05:28:07;;;;;;;;;;;;;;;16.69;100.00;95417.53;5134641;27;1157;-57
2023/06/01 05:30:33;;;;;;;;;;;;;;;16.77;99.26;95418.25;5134550;27;1905;-58
2023/06/01 05:32:59;;;;;;;;;;;;;;;17.00;98.84;95424.50;5134672;27;1477;-58
2023/06/01 05:35:25;;;;;;;;;;;;;;;17.11;98.24;95423.97;5134570;27;1120;-57
2023/06/01 05:37:51;;;;;;;;;;;;;;;17.13;96.70;95430.88;5134561;27;1065;-57
2023/06/01 05:40:18;;;;;;;;;;;;;;;17.19;98.67;95429.25;5133974;27;1005;-57
2023/06/01 05:42:43;;;;;;;;;;;;;;;17.27;97.86;95426.41;5134460;27;1116;-57
2023/06/01 05:45:10;;;;;;;;;;;;;;;17.24;98.89;95432.19;5134520;27;1052;-57
2023/06/01 05:47:35;;;;;;;;;;;;;;;17.27;97.32;95433.69;5134686;27;989;-57
2023/06/01 05:50:02;;;;;;;;;;;;;;;16.98;99.00;95432.81;5134655;27;972;-57
2023/06/01 05:52:28;;;;;;;;;;;;;;;16.86;98.51;95432.47;5134289;27;1902;-57
2023/06/01 05:54:54;;;;;;;;;;;;;;;17.07;100.00;95422.69;5116228;28;1038;-57
2023/06/01 05:57:20;;;;;;;;;;;;;;;17.39;100.00;95429.38;5134249;27;1012;-58
2023/06/01 05:59:46;;;;;;;;;;;;;;;17.39;98.14;95431.25;5134580;27;1028;-58
2023/06/01 06:02:13;;;;;;;;;;;;;;;17.50;95.80;95426.13;5134511;27;969;-57
2023/06/01 06:04:39;;;;;;;;;;;;;;;17.64;97.66;95432.50;5134146;28;1272;-57
2023/06/01 06:07:05;;;;;;;;;;;;;;;17.75;95.38;95442.72;5134247;28;1075;-57
2023/06/01 06:09:31;;;;;;;;;;;;;;;17.64;96.73;95435.19;5134282;28;1050;-58
2023/06/01 06:11:58;;;;;;;;;;;;;;;17.75;94.69;95439.19;5134224;28;1905;-57
2023/06/01 06:14:24;;;;;;;;;;;;;;;17.71;96.63;95427.94;5133948;28;1120;-58
2023/06/01 06:16:50;;;;;;;;;;;;;;;17.63;94.54;95435.38;5134395;28;1084;-58
2023/06/01 06:19:16;;;;;;;;;;;;;;;17.32;100.00;95439.31;5134030;28;1029;-58
2023/06/01 06:21:42;;;;;;;;;;;;;;;17.19;99.72;95437.34;5134122;28;1045;-57
2023/06/01 06:24:09;;;;;;;;;;;;;;;17.30;98.80;95442.22;5129642;28;2858;-57
2023/06/01 06:26:35;;;;;;;;;;;;;;;17.31;98.93;95438.47;5118243;28;1185;-58
2023/06/01 06:29:01;;;;;;;;;;;;;;;17.44;99.05;95442.34;5134099;28;952;-58
2023/06/01 06:31:27;;;;;;;;;;;;;;;17.29;97.53;95440.53;5133884;28;1960;-58
2023/06/01 06:33:53;;;;;;;;;;;;;;;17.26;98.88;95440.94;5134148;28;1009;-58
2023/06/01 06:36:19;;;;;;;;;;;;;;;17.33;99.56;95439.13;5133887;28;1109;-57
2023/06/01 06:38:45;;;;;;;;;;;;;;;17.44;97.10;95445.84;5133894;28;1046;-58
2023/06/01 06:41:11;;;;;;;;;;;;;;;17.63;96.46;95441.63;5115687;28;1101;-58
2023/06/01 06:43:38;;;;;;;;;;;;;;;17.59;92.93;95437.66;5115649;28;1202;-58
2023/06/01 06:46:04;;;;;;;;;;;;;;;17.81;93.47;95440.28;5133881;28;1037;-58
2023/06/01 06:48:30;;;;;;;;;;;;;;;18.03;95.67;95436.47;5133971;28;973;-57
2023/06/01 06:50:56;;;;;;;;;;;;;;;18.03;94.00;95430.25;5135417;27;1906;-58
2023/06/01 06:53:22;;;;;;;;;;;;;;;17.94;92.74;95429.56;5137803;27;970;-57
2023/06/01 06:55:48;;;;;;;;;;;;;;;17.89;93.39;95441.00;5138006;27;1016;-57
2023/06/01 06:58:14;;;;;;;;;;;;;;;17.93;94.88;95436.03;5119629;27;1016;-57
2023/06/01 07:00:40;;;;;;;;;;;;;;;18.33;93.27;95438.91;5137940;27;1043;-57
2023/06/01 07:03:07;;;;;;;;;;;;;;;18.62;90.70;95431.50;5137365;27;1574;-57
2023/06/01 07:05:33;;;;;;;;;;;;;;;18.70;92.11;95425.88;5137701;27;1043;-58
2023/06/01 07:07:59;;;;;;;;;;;;;;;18.92;89.07;95427.41;5137451;27;1105;-57
2023/06/01 07:10:25;;;;;;;;;;;;;;;18.98;89.45;95423.03;5137408;27;937;-58
2023/06/01 07:12:51;;;;;;;;;;;;;;;19.20;88.77;95429.13;5137495;27;1064;-57
2023/06/01 07:15:18;;;;;;;;;;;;;;;19.47;87.00;95429.94;5137282;27;1241;-57
2023/06/01 07:17:44;;;;;;;;;;;;;;;19.56;87.22;95433.28;5119307;27;977;-57
2023/06/01 07:20:13;;;;;;;;;;;;;;;19.71;84.79;95427.63;5137180;27;936;-57
2023/06/01 07:22:40;;;;;;;;;;;;;;;19.94;86.25;95426.34;5137212;27;1045;-57
2023/06/01 07:25:07;;;;;;;;;;;;;;;20.03;84.45;95425.06;5137483;27;1039;-57
2023/06/01 07:27:36;;;;;;;;;;;;;;;20.18;85.54;95427.50;5136938;27;1228;-57
2023/06/01 07:30:03;;;;;;;;;;;;;;;20.24;83.93;95426.66;5137043;27;1061;-57
2023/06/01 07:32:29;;;;;;;;;;;;;;;20.25;83.36;95426.44;5136871;27;1902;-57
2023/06/01 07:34:57;;;;;;;;;;;;;;;20.18;85.53;95424.81;5136846;27;1057;-57
2023/06/01 07:37:26;;;;;;;;;;;;;;;20.24;85.59;95416.66;5137172;27;957;-57
2023/06/01 07:39:52;;;;;;;;;;;;;;;20.12;87.05;95417.53;5136901;27;1051;-56
2023/06/01 07:42:19;;;;;;;;;;;;;;;20.14;85.00;95416.25;5136684;27;1089;-57
2023/06/01 07:44:45;;;;;;;;;;;;;;;20.42;85.42;95413.22;5136750;27;1225;-57
2023/06/01 07:47:11;;;;;;;;;;;;;;;20.35;83.07;95415.13;5136676;27;1096;-57
2023/06/01 07:49:37;;;;;;;;;;;;;;;20.72;81.58;95407.25;5125209;27;2511;-57
2023/06/01 07:52:04;;;;;;;;;;;;;;;20.71;82.79;95404.75;5136427;27;1909;-58
2023/06/01 07:54:31;;;;;;;;;;;;;;;20.88;81.08;95403.16;5136439;27;1225;-58
2023/06/01 07:56:57;;;;;;;;;;;;;;;21.54;81.57;95406.44;5136545;27;1009;-57
2023/06/01 07:59:27;;;;;;;;;;;;;;;21.55;77.67;95403.50;5136421;27;1112;-57
2023/06/01 08:01:55;;;;;;;;;;;;;;;21.50;79.92;95397.91;5136035;27;1057;-56
2023/06/01 08:04:21;;;;;;;;;;;;;;;21.99;77.73;95396.16;5135882;27;1130;-56
2023/06/01 08:06:47;;;;;;;;;;;;;;;22.20;76.27;95394.84;5152647;27;1067;-57
2023/06/01 08:09:13;;;;;;;;;;;;;;;22.08;76.14;95401.28;5136291;27;1037;-57
2023/06/01 08:11:39;;;;;;;;;;;;;;;22.16;75.17;95395.53;5136165;27;1910;-57
2023/06/01 08:14:09;;;;;;;;;;;;;;;22.16;71.08;95399.09;5117994;27;1112;-57
2023/06/01 08:16:35;;;;;;;;;;;;;;;21.81;72.06;95401.56;5136291;27;1185;-57
2023/06/01 08:19:01;;;;;;;;;;;;;;;21.57;78.19;95403.25;5136006;27;1089;-57
2023/06/01 08:21:27;;;;;;;;;;;;;;;21.46;74.07;95399.41;5136076;27;1028;-57
2023/06/01 08:23:56;;;;;;;;;;;;;;;21.84;76.10;95399.22;5134856;27;2177;-57
2023/06/01 08:26:22;;;;;;;;;;;;;;;22.30;74.58;95394.34;5134776;27;2944;-58
2023/06/01 08:28:51;;;;;;;;;;;;;;;22.77;73.04;95391.00;5136192;27;1028;-57
2023/06/01 08:31:18;;;;;;;;;;;;;;;22.74;72.58;95380.56;5135891;27;1914;-58
2023/06/01 08:33:45;;;;;;;;;;;;;;;23.00;71.45;95379.34;5117650;27;989;-57
2023/06/01 08:36:11;;;;;;;;;;;;;;;23.10;73.38;95376.88;5135661;27;969;-57
2023/06/01 08:38:37;;;;;;;;;;;;;;;23.29;72.05;95363.16;5117429;27;1060;-57
2023/06/01 08:41:04;;;;;;;;;;;;;;;23.14;71.54;95361.72;5135862;27;1037;-57
2023/06/01 08:43:32;;;;;;;;;;;;;;;23.27;73.01;95368.03;5135671;27;1072;-57
2023/06/01 08:45:59;;;;;;;;;;;;;;;23.03;72.03;95361.66;5134891;27;1025;-57
2023/06/01 08:48:25;;;;;;;;;;;;;;;22.74;72.65;95356.84;5135246;27;1227;-57
2023/06/01 08:50:53;;;;;;;;;;;;;;;22.72;74.72;95353.53;5135419;27;1905;-56
2023/06/01 08:53:21;;;;;;;;;;;;;;;22.91;72.92;95353.47;5135486;27;989;-57
2023/06/01 08:55:53;;;;;;;;;;;;;;;22.93;75.77;95346.69;5135313;27;1104;-57
2023/06/01 08:58:19;;;;;;;;;;;;;;;22.86;69.84;95351.44;5135153;27;1037;-57
2023/06/01 09:00:53;;;;;;;;;;;;;;;23.07;75.17;95355.56;5135525;27;989;-57
2023/06/01 09:03:19;;;;;;;;;;;;;;;23.40;74.00;95343.25;5135025;27;1441;-57
2023/06/01 09:05:45;;;;;;;;;;;;;;;23.54;70.70;95344.69;5135456;27;957;-56
2023/06/01 09:08:12;;;;;;;;;;;;;;;23.41;71.52;95341.34;5134937;27;1253;-56
2023/06/01 09:10:38;;;;;;;;;;;;;;;23.30;69.48;95338.38;5135214;27;1988;-57
2023/06/01 09:13:04;;;;;;;;;;;;;;;23.08;69.39;95331.84;5135344;27;1056;-57
2023/06/01 09:15:30;;;;;;;;;;;;;;;22.88;73.06;95335.69;5116000;27;1017;-57
2023/06/01 09:18:07;;;;;;;;;;;;;;;22.95;73.63;95335.56;5134915;27;1000;-56
2023/06/01 09:20:33;;;;;;;;;;;;;;;23.04;70.80;95323.28;5134726;27;1069;-57
2023/06/01 09:23:00;;;;;;;;;;;;;;;23.27;73.48;95325.19;5135079;27;1014;-57
2023/06/01 09:25:31;;;;;;;;;;;;;;;22.99;73.66;95325.84;5134677;27;1056;-56
2023/06/01 09:27:58;;;;;;;;;;;;;;;23.35;75.65;95330.31;5134835;27;1177;-56
2023/06/01 09:30:25;;;;;;;;;;;;;;;23.87;74.17;95320.59;5133912;27;2493;-57
2023/06/01 09:33:05;;;;;;;;;;;;;;;24.20;70.70;95325.34;5117873;27;2841;-57
2023/06/01 09:35:38;;;;;;;;;;;;;;;24.61;69.83;95311.69;5114265;28;962;-57
2023/06/01 09:38:06;;;;;;;;;;;;;;;24.57;70.10;95321.44;5113959;28;1057;-57
2023/06/01 09:40:32;;;;;;;;;;;;;;;24.41;69.05;95306.63;5113988;28;1009;-57
2023/06/01 09:42:59;;;;;;;;;;;;;;;24.65;70.86;95304.66;5114317;28;973;-58
2023/06/01 09:45:25;;;;;;;;;;;;;;;24.87;68.17;95302.00;5113794;28;1019;-57
2023/06/01 09:47:51;;;;;;;;;;;;;;;25.20;68.53;95303.94;5113814;28;1274;-57
2023/06/01 09:50:37;;;;;;;;;;;;;;;25.41;66.96;95307.03;5113717;28;1045;-57
2023/06/01 09:53:04;;;;;;;;;;;;;;;24.83;67.52;95293.47;5113916;28;968;-57
2023/06/01 09:55:30;;;;;;;;;;;;;;;24.92;68.33;95294.72;5113866;28;1205;-57
2023/06/01 09:58:15;;;;;;;;;;;;;;;25.39;67.36;95298.25;5113750;28;1033;-57
2023/06/01 10:00:41;;;;;;;;;;;;;;;25.32;66.56;95284.72;5113921;28;1013;-57
2023/06/01 10:03:07;;;;;;;;;;;;;;;25.30;67.15;95292.34;5113666;28;1088;-58
2023/06/01 10:05:34;;;;;;;;;;;;;;;25.49;64.04;95274.56;5113953;28;1016;-57
2023/06/01 10:08:01;;;;;;;;;;;;;;;25.79;66.70;95273.34;5113917;28;1012;-57
2023/06/01 10:10:27;;;;;;;;;;;;;;;25.73;65.24;95270.81;5113552;28;1036;-58
2023/06/01 10:12:53;;;;;;;;;;;;;;;25.52;65.51;95276.81;5113766;28;1909;-57
2023/06/01 10:15:19;;;;;;;;;;;;;;;25.11;64.92;95269.88;5113651;28;1005;-57
2023/06/01 10:17:45;;;;;;;;;;;;;;;25.36;64.61;95271.38;5113459;28;1121;-57
2023/06/01 10:20:13;;;;;;;;;;;;;;;25.62;65.04;95258.88;5113663;28;1144;-57
2023/06/01 10:22:41;;;;;;;;;;;;;;;26.03;64.42;95267.66;5113791;28;961;-58
2023/06/01 10:25:09;;;;;;;;;;;;;;;26.27;64.31;95265.44;5113788;28;1047;-56
2023/06/01 10:27:39;;;;;;;;;;;;;;;25.90;62.23;95264.16;5131095;27;1201;-57
2023/06/01 10:30:09;;;;;;;;;;;;;;;25.78;63.44;95251.69;5138248;27;981;-58
2023/06/01 10:32:42;;;;;;;;;;;;;;;25.79;67.20;95247.88;5138274;27;1998;-57
2023/06/01 10:35:10;;;;;;;;;;;;;;;25.81;65.24;95243.78;5138181;27;973;-56
2023/06/01 10:37:36;;;;;;;;;;;;;;;25.65;65.28;95240.03;5119812;27;1045;-56
2023/06/01 10:40:14;;;;;;;;;;;;;;;24.94;67.33;95215.19;5137956;27;988;-56
2023/06/01 10:42:40;;;;;;;;;;;;;;;24.68;68.33;95235.81;5119919;27;1035;-57
2023/06/01 10:45:07;;;;;;;;;;;;;;;24.49;68.44;95232.44;5138093;27;1056;-57
2023/06/01 10:47:33;;;;;;;;;;;;;;;24.28;69.75;95223.91;5137994;27;965;-57
2023/06/01 10:50:00;;;;;;;;;;;;;;;24.15;68.62;95221.47;5137895;27;1028;-57
2023/06/01 10:52:27;;;;;;;;;;;;;;;24.19;69.96;95219.06;5137508;27;1993;-57
2023/06/01 10:55:16;;;;;;;;;;;;;;;24.09;69.96;95215.09;5137752;27;1049;-57
2023/06/01 10:57:46;;;;;;;;;;;;;;;23.97;69.80;95208.81;5136624;27;2571;-57
2023/06/01 11:00:14;;;;;;;;;;;;;;;24.07;69.58;95208.19;5136070;27;2841;-57
2023/06/01 11:02:48;;;;;;;;;;;;;;;24.50;67.76;95217.72;5119375;27;1350;-58
2023/06/01 11:05:32;;;;;;;;;;;;;;;25.20;68.49;95216.38;5137349;27;970;-56
2023/06/01 11:07:58;;;;;;;;;;;;;;;25.84;70.40;95201.38;5137672;27;1020;-56
2023/06/01 11:10:57;;;;;;;;;;;;;;;26.08;67.94;95200.03;5137592;27;1047;-57
2023/06/01 11:13:31;;;;;;;;;;;;;;;25.78;64.43;95189.53;5137461;27;1016;-57
2023/06/01 11:16:09;;;;;;;;;;;;;;;25.84;63.99;95188.50;5137257;27;1061;-57
2023/06/01 11:18:41;;;;;;;;;;;;;;;26.27;62.26;95192.31;5137418;27;1023;-57
2023/06/01 11:21:17;;;;;;;;;;;;;;;26.45;64.50;95193.00;5137292;27;981;-57
2023/06/01 11:23:45;;;;;;;;;;;;;;;26.48;63.35;95186.97;5137478;27;1035;-56
2023/06/01 11:26:13;;;;;;;;;;;;;;;26.59;65.38;95177.78;5136889;27;1210;-58
2023/06/01 11:28:39;;;;;;;;;;;;;;;26.56;61.47;95177.47;5136956;27;1241;-57
2023/06/01 11:31:09;;;;;;;;;;;;;;;26.32;59.17;95175.06;5137191;27;1914;-56
2023/06/01 11:33:37;;;;;;;;;;;;;;;26.49;60.38;95173.03;5136914;27;1028;-56
2023/06/01 11:36:05;;;;;;;;;;;;;;;26.76;57.28;95176.84;5137153;27;1039;-57
2023/06/01 11:38:35;;;;;;;;;;;;;;;26.83;55.45;95172.78;5135873;27;1037;-57
2023/06/01 11:41:02;;;;;;;;;;;;;;;26.89;60.74;95165.41;5137027;27;1060;-57
2023/06/01 11:43:31;;;;;;;;;;;;;;;26.68;57.47;95175.41;5136747;27;960;-58
2023/06/01 11:46:15;;;;;;;;;;;;;;;26.30;60.03;95158.06;5136868;27;1036;-58
2023/06/01 11:48:41;;;;;;;;;;;;;;;25.89;61.77;95161.16;5136748;27;1001;-57
2023/06/01 11:51:07;;;;;;;;;;;;;;;25.54;61.50;95160.78;5136424;27;1992;-57
2023/06/01 11:53:33;;;;;;;;;;;;;;;25.25;61.62;95155.47;5136492;27;1112;-57
2023/06/01 11:55:59;;;;;;;;;;;;;;;25.05;61.80;95154.06;5136765;27;1031;-57
2023/06/01 11:58:25;;;;;;;;;;;;;;;24.82;64.12;95152.38;5136610;27;1035;-57
2023/06/01 12:00:52;;;;;;;;;;;;;;;24.75;64.48;95152.53;5136508;27;1031;-56
2023/06/01 12:03:18;;;;;;;;;;;;;;;25.10;63.18;95153.34;5136146;27;1117;-58
2023/06/01 12:05:45;;;;;;;;;;;;;;;25.33;60.03;95147.66;5136568;27;1047;-57
2023/06/01 12:08:31;;;;;;;;;;;;;;;25.46;59.29;95140.13;5136481;27;976;-57
2023/06/01 12:10:57;;;;;;;;;;;;;;;25.21;59.19;95151.53;5136527;27;1971;-58
2023/06/01 12:13:24;;;;;;;;;;;;;;;24.99;60.13;95144.16;5136030;27;1096;-57
2023/06/01 12:15:51;;;;;;;;;;;;;;;24.85;60.33;95159.25;5136084;27;1136;-58
2023/06/01 12:18:28;;;;;;;;;;;;;;;24.69;59.20;95160.94;5135903;27;1041;-56
2023/06/01 12:20:54;;;;;;;;;;;;;;;24.34;59.08;95151.06;5136287;27;937;-57
2023/06/01 12:23:20;;;;;;;;;;;;;;;24.14;60.58;95149.59;5135957;27;1128;-56
2023/06/01 12:25:50;;;;;;;;;;;;;;;24.14;59.55;95152.34;5136213;27;951;-57
2023/06/01 12:28:17;;;;;;;;;;;;;;;24.15;60.15;95150.47;5135582;27;1208;-56
2023/06/01 12:30:43;;;;;;;;;;;;;;;24.39;60.45;95147.56;5135699;27;1910;-57
2023/06/01 12:33:29;;;;;;;;;;;;;;;24.42;60.19;95136.97;5135808;27;1045;-57
2023/06/01 12:35:55;;;;;;;;;;;;;;;24.31;58.79;95144.16;5135647;27;1041;-56
2023/06/01 12:38:22;;;;;;;;;;;;;;;24.27;61.17;95128.53;5135892;27;1047;-56
2023/06/01 12:41:04;;;;;;;;;;;;;;;24.24;61.68;95123.53;5135604;27;1057;-57
2023/06/01 12:43:31;;;;;;;;;;;;;;;24.22;59.71;95126.53;5135689;27;1011;-56
2023/06/01 12:45:57;;;;;;;;;;;;;;;24.21;60.70;95121.28;5135933;27;1051;-57
2023/06/01 12:48:33;;;;;;;;;;;;;;;24.27;60.28;95118.41;5135136;27;933;-56
2023/06/01 12:50:59;;;;;;;;;;;;;;;24.20;62.95;95109.56;5135237;27;1980;-56
2023/06/01 12:53:25;;;;;;;;;;;;;;;24.18;62.58;95100.78;5135197;27;1294;-57
2023/06/01 12:55:51;;;;;;;;;;;;;;;24.13;63.25;95101.53;5135131;27;1232;-56
2023/06/01 12:58:17;;;;;;;;;;;;;;;24.09;63.64;95100.38;5135493;27;1056;-56